Tiempo atmosférico en la estación meteorológica de Jabaloyas, Teruel (1430 m.)



Fecha
DESCASC
Temp. máxima en grados centígrados (hora)
DESCASC
Temp. mínima en grados centígrados (hora)
DESCASC
Temp. media en grados centígrados
DESCASC
Racha de viento máxima en m/sg (hora)
DESCASC
Velocidad máxima media en intervalos de 10 minutos(hora)
DESCASC
Precipitaciones diarias en mm
DESCASC
Precipitaciones de 00:00 a 06:00 en mm
DESCASC
Precipitaciones de 06:00 a 12:00 en mm
DESCASC
Precipitaciones de 12:00 a 18:00 en mm
DESCASC
Precipitaciones de 18:00 a 24:00 en mm
DESCASC
16-06-2019 21 (15:40) 9.9 (03:20) 15.4 10.28 (12:20) 6.11 (12:00) 0 0 0 0 0
15-06-2019 21.5 (18:40) 7.1 (06:20) 14.3 8.89 (18:20) 5 (16:40) 0 0 0 0 0
14-06-2019 20.5 (16:20) 11 (02:40) 15.8 13.06 (17:40) 8.61 (10:00) 1 0 1 0 0
13-06-2019 18.1 (17:10) 7 (00:00) 12.6 10.56 (04:10) 6.39 (04:00) 0.4 0 0.4 0 0
12-06-2019 17.5 (17:20) 2.3 (00:00) 9.9 10.28 (16:50) 6.94 (22:10) 0 0 0 0 0
11-06-2019 10.5 (05:50) 4.7 (00:00) 7.6 11.11 (18:30) 7.78 (18:20) 0.4 0 0 0.4 0
10-06-2019 19.8 (19:30) 8.8 (00:00) 14.3 10 (02:10) 6.94 (02:10) 0 0 0 0 0
09-06-2019 22.5 (17:00) 10.9 (00:00) 16.7 11.67 (16:10) 5.83 (02:20) 0 0 0 0 0
08-06-2019 17.5 (15:20) 7.4 (00:00) 12.5 13.06 (14:30) 7.78 (12:30) 0 0 0 0 0
07-06-2019 18.1 (17:20) 6.9 (00:00) 12.5 12.5 (10:10) 6.67 (10:50) 0 0 0 0 0
06-06-2019 18.6 (17:00) 6.3 (00:00) 12.5 14.17 (17:20) 8.61 (18:30) 0 0 0 0 0
05-06-2019 15.3 (00:10) 9.1 (00:00) 12.2 16.67 (13:10) 10 (13:00) 0.2 0 0.2 0 0
04-06-2019 24.6 (17:20) 14.4 (00:00) 19.5 14.17 (17:10) 6.39 (16:20) 0 0 0 0 0
03-06-2019 26.4 (16:00) 14.8 (00:00) 20.6 12.22 (17:50) 6.11 (22:30) 0 0 0 0 0
02-06-2019 26 (17:00) 13.4 (00:00) 19.7 10 (03:30) 7.22 (03:30) 0 0 0 0 0
01-06-2019 24.7 (18:10) 10.2 (00:00) 17.5 8.61 (18:30) 5.83 (23:50) 0 0 0 0 0
31-05-2019 23.5 (17:10) 10.6 (00:00) 17.1 8.89 (18:30) 5.56 (21:30) 0 0 0 0 0
30-05-2019 21.7 (17:00) 6.7 (00:00) 14.2 8.61 (20:00) 5.56 (04:00) 0 0 0 0 0
29-05-2019 16.4 (17:50) 3.2 (00:00) 9.8 15.83 (09:50) 10.28 (06:40) 0 0 0 0 0
28-05-2019 17.2 (17:10) 5.6 (00:00) 11.4 11.39 (17:20) 7.5 (18:50) 0 0 0 0 0
27-05-2019 19.9 (14:40) 7.9 (00:00) 13.9 10 (07:50) 6.39 (08:00) 0 0 0 0 0
26-05-2019 15.4 (18:20) 4.3 (00:00) 9.8 11.67 (13:10) 7.78 (13:10) 0 0 0 0 0
25-05-2019 13.5 (18:10) 5.4 (00:00) 9.5 12.5 (02:00) 8.33 (10:00) 0 0 0 0 0
24-05-2019 16.4 (00:00) 6.6 (00:00) 11.5 14.44 (00:20) 7.78 (00:40) 2 0.2 0.4 1.4 0
23-05-2019 20.3 (17:10) 10.8 (00:00) 15.5 9.17 (03:00) 6.39 (03:00) 0 0 0 0 0
22-05-2019 19 (18:10) 7.5 (00:00) 13.3 8.06 (12:00) 5.28 (10:30) 0 0 0 0 0

Gráficas

Temp. máximas Temp. mínimas Temp. medias Precipitaciones Rachas de viento máximas Velocidades máximas media en intervalos de 10 minutos

Datos horarios

Fecha y hora oficial Temperatura (ºC) Velocidad del viento (km/h) Dirección del viento Racha (km/h) Dirección de racha Precipitación (mm) Presión (hPa) Tendencia (hPa) Humedad (%)
2019-06-20 23:00:00 15.7 8 Sudeste 11 Sudeste 0 -- -- 74
2019-06-20 22:00:00 17.7 5 Sur 13 Este 0 -- -- 63
2019-06-20 21:00:00 20.9 5 Sudoeste 20 Oeste 0 -- -- 35
2019-06-20 20:00:00 22.8 13 Oeste 26 Sudoeste 0 -- -- 33
2019-06-20 19:00:00 21.9 14 Sudeste 32 Sudeste 0 -- -- 50
2019-06-20 18:00:00 22.4 19 Sudeste 36 Sudeste 0 -- -- 49
2019-06-20 17:00:00 22.3 18 Sudeste 35 Sudeste 0 -- -- 49
2019-06-20 16:00:00 24.6 12 Sudeste 37 Sudeste 0 -- -- 32
2019-06-20 15:00:00 24.2 13 Sur 40 Sur 0 -- -- 31
2019-06-20 14:00:00 23.7 15 Sur 29 Sudeste 0 -- -- 32
2019-06-20 13:00:00 22.7 11 Sudeste 33 Sur 0 -- -- 35
2019-06-20 12:00:00 21.8 9 Sur 25 Sudeste 0 -- -- 35
2019-06-20 11:00:00 20.4 5 Sudoeste 16 Sudoeste 0 -- -- 39
2019-06-20 10:00:00 19 8 Oeste 16 Sudoeste 0 -- -- 45
2019-06-20 09:00:00 18.2 8 Noroeste 17 Oeste 0 -- -- 52
2019-06-20 08:00:00 15.3 0 Calma 12 Sudoeste 0 -- -- 60
2019-06-20 07:00:00 14.9 8 Sudoeste 13 Sudoeste 0 -- -- 58
2019-06-20 06:00:00 14.4 8 Oeste 12 Sudoeste 0 -- -- 58
2019-06-20 05:00:00 14.3 2 Oeste 10 Sudoeste 0 -- -- 59
2019-06-20 04:00:00 15.3 5 Sudoeste 9 Sudoeste 0 -- -- 56
2019-06-20 03:00:00 15.8 8 Sudoeste 18 Oeste 0 -- -- 53
2019-06-20 02:00:00 16 10 Sudoeste 18 Oeste 0 -- -- 57
2019-06-20 01:00:00 16.7 12 Oeste 19 Oeste 0 -- -- 54
2019-06-20 00:00:00 17.3 15 Oeste 21 Oeste 0 -- -- 50
2019-06-19 23:00:00 18.8 11 Oeste 20 Oeste 0 -- -- 42
2019-06-19 22:00:00 18.8 7 Sudoeste 15 Oeste 0 -- -- 41
2019-06-19 21:00:00 20.9 5 Sudoeste 22 Oeste 0 -- -- 36
2019-06-19 20:00:00 22.9 12 Oeste 27 Sudoeste 0 -- -- 31
2019-06-19 19:00:00 23.6 11 Sudoeste 35 Sudoeste 0 -- -- 30
2019-06-19 18:00:00 23.5 16 Oeste 30 Oeste 0 -- -- 31
2019-06-19 17:00:00 23.9 6 Sur 27 Sur 0 -- -- 33
2019-06-19 16:00:00 23.3 8 Sur 29 Sudoeste 0 -- -- 33
2019-06-19 15:00:00 22.6 15 Sudoeste -- -- -- -- -- 34
2019-06-19 14:00:00 -- -- -- -- -- -- -- -- --
2019-06-19 13:00:00 21.2 10 Sudoeste 25 Oeste 0 -- -- 45
2019-06-19 12:00:00 19.9 6 Oeste 34 Oeste 0 -- -- 44
2019-06-19 11:00:00 18.2 12 Oeste 26 Oeste 0 -- -- 50
2019-06-19 10:00:00 17.1 12 Oeste 21 Oeste 0 -- -- 56
2019-06-19 09:00:00 16.1 10 Oeste 16 Oeste 0 -- -- 60
2019-06-19 08:00:00 15.4 6 Noroeste 14 Oeste 0 -- -- 60
2019-06-19 07:00:00 13.1 8 Oeste 15 Oeste 0 -- -- 66
2019-06-19 06:00:00 14 9 Oeste 15 Oeste 0 -- -- 63
2019-06-19 05:00:00 14.1 11 Oeste 19 Oeste 0 -- -- 57
2019-06-19 04:00:00 14.7 13 Oeste 18 Oeste 0 -- -- 49
2019-06-19 03:00:00 15.1 10 Oeste 18 Oeste 0 -- -- 39
2019-06-19 02:00:00 14.7 10 Oeste 14 Oeste 0 -- -- 34
2019-06-19 01:00:00 15.5 3 Sur 15 Sur 0 -- -- 33
2019-06-19 00:00:00 15.2 11 Sur 15 Sudeste 0 -- -- 39
2019-06-18 23:00:00 16.3 10 Sudeste 23 Sur 0 -- -- 40
2019-06-18 22:00:00 18.5 9 Sudeste 26 Sur 0 -- -- 36
2019-06-18 21:00:00 23.3 9 Sur 28 Sur 0 -- -- 21
2019-06-18 20:00:00 24.7 13 Sur 45 Oeste 0 -- -- 21
2019-06-18 19:00:00 25.3 14 Sur 43 Sur 0 -- -- 28
2019-06-18 18:00:00 25.5 11 Sur 36 Sur 0 -- -- 29
2019-06-18 17:00:00 25.1 15 Sur 44 Oeste 0 -- -- 28
2019-06-18 16:00:00 25.1 18 Sur 37 Sur 0 -- -- 27
2019-06-18 15:00:00 24.4 22 Sudeste 39 Sudeste 0 -- -- 28
2019-06-18 14:00:00 24.4 15 Sur 36 Sudeste 0 -- -- 30
2019-06-18 13:00:00 23.3 22 Sudeste 40 Sur 0 -- -- 30
2019-06-18 12:00:00 23 15 Sur 27 Sur 0 -- -- 31
2019-06-18 11:00:00 22.2 9 Sur 26 Sur 0 -- -- 29
2019-06-18 10:00:00 21.1 7 Sur 18 Sudeste 0 -- -- 32
2019-06-18 09:00:00 18.1 13 Sudeste 20 Sudeste 0 -- -- 47
2019-06-18 08:00:00 16 5 Sudoeste 27 Sudoeste 0 -- -- 44
2019-06-18 07:00:00 16 14 Sudoeste 32 Sudoeste 0 -- -- 43
2019-06-18 06:00:00 15.8 13 Sudoeste 24 Sur 0 -- -- 44
2019-06-18 05:00:00 15.8 14 Sur 24 Sur 0 -- -- 46
2019-06-18 04:00:00 15.8 10 Sur 18 Sudeste 0 -- -- 51
2019-06-18 03:00:00 15.8 9 Sur 15 Sur 0 -- -- 52
2019-06-18 02:00:00 15.1 6 Sudeste 19 Sur 0 -- -- 57
2019-06-18 01:00:00 15 9 Sur 14 Sur 0 -- -- 57
2019-06-18 00:00:00 15.3 11 Sur 15 Sur 0 -- -- 55
2019-06-17 23:00:00 15.6 12 Sur 15 Sur 0 -- -- 57
2019-06-17 22:00:00 16.8 12 Sudeste 20 Sudeste 0 -- -- 54
2019-06-17 21:00:00 20.4 13 Sudeste 25 Sudeste 0 -- -- 43
2019-06-17 20:00:00 23.8 10 Sur 21 Sur 0 -- -- 24
2019-06-17 19:00:00 24.6 10 Sur 21 Sudeste 0 -- -- 25
2019-06-17 18:00:00 25.4 10 Sur 30 Oeste 0 -- -- 25
2019-06-17 17:00:00 24.8 14 Sur 30 Sudeste 0 -- -- 24
2019-06-17 16:00:00 24.9 10 Sudoeste 29 Sur 0 -- -- 24
2019-06-17 15:00:00 24.3 12 Sudeste 37 Sudeste 0 -- -- 25
2019-06-17 14:00:00 23.3 17 Sudeste 39 Sudeste 0 -- -- 29
2019-06-17 13:00:00 22.5 18 Este 39 Este 0 -- -- 30
2019-06-17 12:00:00 22.2 11 Este 27 Sudeste 0 -- -- 31
2019-06-17 11:00:00 21.6 12 Sudeste 21 Este 0 -- -- 32
2019-06-17 10:00:00 20 6 Este 11 Este 0 -- -- 43
2019-06-17 09:00:00 17.7 5 Este 10 Sudeste 0 -- -- 43
2019-06-17 08:00:00 16.3 6 Sudeste 13 Sudoeste 0 -- -- 45
2019-06-17 07:00:00 15.4 13 Sudoeste 21 Oeste 0 -- -- 42
2019-06-17 06:00:00 13.3 3 Oeste 11 Sudoeste 0 -- -- 48
2019-06-17 05:00:00 13.7 4 Oeste 24 Sudoeste 0 -- -- 47
2019-06-17 04:00:00 13.8 5 Oeste 33 Sudoeste 0 -- -- 52
2019-06-17 03:00:00 13.2 4 Sudeste 14 Este 0 -- -- 67
2019-06-17 02:00:00 14.3 3 Norte 26 Sudoeste 0 -- -- 67
2019-06-17 01:00:00 15.5 13 Sudoeste 33 Sudoeste 0 -- -- 61
2019-06-17 00:00:00 15.6 17 Sudoeste 30 Sudoeste 0 -- -- 59
2019-06-16 23:00:00 15.9 13 Sudoeste 26 Sur 0 -- -- 55
2019-06-16 22:00:00 16.2 10 Sur 24 Sur 0 -- -- 56
2019-06-16 21:00:00 17.8 9 Sur 29 Sudoeste 0 -- -- 55
2019-06-16 20:00:00 17.9 12 Sudeste 28 Sur 0 -- -- 59
2019-06-16 19:00:00 19.3 12 Sur 22 Sur 0 -- -- 43
2019-06-16 18:00:00 19.7 9 Sur 27 Sudeste 0 -- -- 44
2019-06-16 17:00:00 19.8 15 Sudeste 26 Sudeste 0 -- -- 48
2019-06-16 16:00:00 21 14 Sudeste 34 Este 0 -- -- 39
2019-06-16 15:00:00 20.3 11 Sudeste 29 Sudeste 0 -- -- 42
2019-06-16 14:00:00 20.2 17 Sudeste 34 Este 0 -- -- 42
2019-06-16 13:00:00 19 21 Este 37 Este 0 -- -- 43
2019-06-16 12:00:00 18.2 22 Este 35 Este 0 -- -- 42
2019-06-16 11:00:00 17.1 15 Sudeste 30 Sudeste 0 -- -- 43
2019-06-16 10:00:00 15.8 14 Sudeste 28 Este 0 -- -- 46
2019-06-16 09:00:00 14.4 14 Sudeste 26 Sudeste 0 -- -- 48
2019-06-16 08:00:00 13.1 14 Sudeste 23 Sur 0 -- -- 51
2019-06-16 07:00:00 11.3 14 Sur 22 Sudeste 0 -- -- 55
2019-06-16 06:00:00 11 11 Sur 19 Sur 0 -- -- 56
2019-06-16 05:00:00 10.9 12 Sudeste 21 Sudeste 0 -- -- 58
2019-06-16 04:00:00 10 4 Sudeste 6 Sudeste 0 -- -- 62
2019-06-16 03:00:00 10.2 3 Sur 10 Oeste 0 -- -- 64
2019-06-16 02:00:00 11.2 8 Oeste 19 Oeste 0 -- -- 60
2019-06-16 01:00:00 12.3 14 Oeste 19 Oeste 0 -- -- 57
2019-06-16 00:00:00 13.3 12 Oeste 21 Oeste 0 -- -- 50
2019-06-15 23:00:00 15 15 Oeste 19 Oeste 0 -- -- 41
2019-06-15 22:00:00 16.1 6 Oeste 19 Noroeste 0 -- -- 40
2019-06-15 21:00:00 19.2 4 Sudoeste 19 Sudeste 0 -- -- 35
2019-06-15 20:00:00 20.6 5 Sur 26 Oeste 0 -- -- 29
2019-06-15 19:00:00 21.4 12 Oeste 32 Sudoeste 0 -- -- 28
2019-06-15 18:00:00 21 8 Sudeste 28 Sur 0 -- -- 29
2019-06-15 17:00:00 20.5 6 Este 30 Este 0 -- -- 29
2019-06-15 16:00:00 19.6 8 Nordeste 27 Sudeste 0 -- -- 33
2019-06-15 15:00:00 19.2 7 Este 27 Este 0 -- -- 34
2019-06-15 14:00:00 18.8 8 Sudeste 22 Sudeste 0 -- -- 35
2019-06-15 13:00:00 17.3 5 Sudoeste 22 Oeste 0 -- -- 33
2019-06-15 12:00:00 15.5 12 Noroeste 25 Oeste 0 -- -- 39
2019-06-15 11:00:00 13.8 3 Norte 20 Noroeste 0 -- -- 45
2019-06-15 10:00:00 12 12 Noroeste 19 Noroeste 0 -- -- 51
2019-06-15 09:00:00 10.4 13 Norte 20 Norte 0 -- -- 54
2019-06-15 08:00:00 9.6 6 Noroeste 10 Oeste 0 -- -- 58
2019-06-15 07:00:00 7.1 7 Noroeste 11 Oeste 0 -- -- 65
2019-06-15 06:00:00 7.3 9 Oeste 13 Oeste 0 -- -- 62
2019-06-15 05:00:00 8 9 Oeste 14 Oeste 0 -- -- 60
2019-06-15 04:00:00 8.6 3 Oeste 13 Oeste 0 -- -- 55
2019-06-15 03:00:00 9.7 6 Oeste 12 Oeste 0 -- -- 51
2019-06-15 02:00:00 10.8 5 Noroeste 28 Oeste 0 -- -- 46
2019-06-15 01:00:00 12.6 12 Oeste 23 Oeste 0 -- -- 41
2019-06-15 00:00:00 13.6 8 Oeste 16 Sudoeste 0 -- -- 40
2019-06-14 23:00:00 14.5 6 Oeste 26 Sudoeste 0 -- -- 37
2019-06-14 22:00:00 15.7 7 Sudoeste 29 Sudoeste 0 -- -- 34
2019-06-14 21:00:00 17.7 10 Sudoeste 37 Sudoeste 0 -- -- 31
2019-06-14 20:00:00 19.1 12 Sudoeste 33 Oeste 0 -- -- 29
2019-06-14 19:00:00 19.7 14 Sur 37 Sur 0 -- -- 31
2019-06-14 18:00:00 20.1 14 Sudoeste 47 Sudoeste 0 -- -- 35
2019-06-14 17:00:00 20.4 16 Sudoeste 41 Sudoeste 0 -- -- 33
2019-06-14 16:00:00 20 21 Sudoeste 43 Oeste 0 -- -- 34
2019-06-14 15:00:00 19.9 15 Sudoeste 39 Sur 0 -- -- 37
2019-06-14 14:00:00 19.1 13 Sudoeste 30 Sudoeste 0 -- -- 46
2019-06-14 13:00:00 17.9 9 Oeste 27 Noroeste 0 -- -- 48
2019-06-14 12:00:00 15.7 13 Oeste 31 Oeste 0 -- -- 64
2019-06-14 11:00:00 13.4 23 Oeste 36 Sudoeste 0 -- -- 78
2019-06-14 10:00:00 12.3 31 Sudoeste 44 Sudoeste 0 -- -- 81
2019-06-14 09:00:00 11.9 22 Sudoeste 40 Sudoeste 0.8 -- -- 85
2019-06-14 08:00:00 11.5 13 Sur 26 Sur 0.2 -- -- 89
2019-06-14 07:00:00 12.4 8 Sudeste 18 Sudoeste 0 -- -- 75
2019-06-14 06:00:00 15.1 12 Sudoeste 27 Sudoeste 0 -- -- 63
2019-06-14 05:00:00 15 18 Sudoeste 27 Sudoeste 0 -- -- 58
2019-06-14 04:00:00 12.6 0 Calma 10 Oeste 0 -- -- 67
2019-06-14 03:00:00 11 6 Noroeste 13 Oeste 0 -- -- 82
2019-06-14 02:00:00 11.2 0 Calma 14 Sudeste 0 -- -- 84
2019-06-14 01:00:00 13.1 7 Oeste 18 Sudeste 0 -- -- 72
2019-06-14 00:00:00 12.6 2 Oeste 11 Sur 0 -- -- 73
2019-06-13 23:00:00 12.7 4 Sur 16 Sur 0 -- -- 76
2019-06-13 22:00:00 13.1 11 Sur 17 Sur 0 -- -- 75
2019-06-13 21:00:00 13.5 13 Sudeste 21 Sudeste 0 -- -- 79
2019-06-13 20:00:00 15.2 14 Sudeste 29 Sudeste 0 -- -- 69
2019-06-13 19:00:00 16.1 14 Sudeste 30 Sudeste 0 -- -- 65
2019-06-13 18:00:00 17.5 15 Sudeste 32 Sudeste 0 -- -- 58
2019-06-13 17:00:00 17.8 10 Sudeste 26 Este 0 -- -- 60
2019-06-13 16:00:00 16.5 14 Este 30 Sudeste 0 -- -- 61
2019-06-13 15:00:00 16.5 15 Sudeste 34 Este 0 -- -- 61
2019-06-13 14:00:00 14.5 16 Sudeste 32 Sudeste 0 -- -- 71
2019-06-13 13:00:00 13 17 Sudeste 28 Este 0 -- -- 81
2019-06-13 12:00:00 10.4 15 Sudeste 31 Este 0 -- -- 94
2019-06-13 11:00:00 9.8 14 Sudeste 31 Sudeste 0 -- -- 98
2019-06-13 10:00:00 9.4 15 Sudeste 28 Sudeste 0 -- -- 98
2019-06-13 09:00:00 9.3 14 Sudeste 35 Sudeste 0.2 -- -- 98
2019-06-13 08:00:00 9.2 17 Sudeste 34 Sudeste 0 -- -- 98
2019-06-13 07:00:00 9.3 15 Sudeste 35 Sudeste 0.2 -- -- 97
2019-06-13 06:00:00 9 17 Sudeste 31 Sudeste 0 -- -- 97
2019-06-13 05:00:00 8.6 12 Sudeste 38 Sur 0 -- -- 96
2019-06-13 04:00:00 8.3 23 Sudeste 37 Sudeste 0 -- -- 97
2019-06-13 03:00:00 7.9 18 Sudeste 36 Sur 0 -- -- 97
2019-06-13 02:00:00 7.4 19 Sudeste 34 Sur 0 -- -- 95
2019-06-13 01:00:00 7.1 18 Sudeste 35 Sur 0 -- -- 83
2019-06-13 00:00:00 7.7 19 Sur 34 Sur 0 -- -- 62
2019-06-12 23:00:00 7.8 21 Sur 37 Sudeste 0 -- -- 63
2019-06-12 22:00:00 9.3 21 Sudeste 34 Sur 0 -- -- 68
2019-06-12 21:00:00 11.9 15 Sudeste 35 Sudeste 0 -- -- 65
2019-06-12 20:00:00 13.3 21 Sudeste 36 Sudeste 0 -- -- 59
2019-06-12 19:00:00 15.5 21 Sudeste 33 Sudeste 0 -- -- 49
2019-06-12 18:00:00 17.5 13 Sur 32 Sudeste 0 -- -- 35
2019-06-12 17:00:00 16.6 12 Sur 37 Sudeste 0 -- -- 35
2019-06-12 16:00:00 17 11 Sur 31 Sur 0 -- -- 36
2019-06-12 15:00:00 16 15 Sudeste 32 Sur 0 -- -- 38
2019-06-12 14:00:00 15.3 10 Sur 28 Sudeste 0 -- -- 35
2019-06-12 13:00:00 13.9 13 Sur 27 Sur 0 -- -- 38
2019-06-12 12:00:00 12.5 11 Sudeste 26 Sudeste 0 -- -- 47
2019-06-12 11:00:00 11.4 15 Sudeste 28 Este 0 -- -- 52
2019-06-12 10:00:00 10 9 Sudeste 24 Sudeste 0 -- -- 55
2019-06-12 09:00:00 8.4 14 Sudeste 21 Sudeste 0 -- -- 59
2019-06-12 08:00:00 5.9 3 Este 17 Sudeste 0 -- -- 74
2019-06-12 07:00:00 3.2 10 Sudeste 14 Sudeste 0 -- -- 82
2019-06-12 06:00:00 2.6 0 Calma 5 Oeste 0 -- -- 79
2019-06-12 05:00:00 2.5 3 Noroeste 6 Oeste 0 -- -- 84
2019-06-12 04:00:00 2.4 2 Oeste 6 Noroeste 0 -- -- 84
2019-06-12 03:00:00 3 2 Oeste 8 Sudoeste 0 -- -- 83
2019-06-12 02:00:00 3.4 3 Oeste 10 Oeste 0 -- -- 81
2019-06-12 01:00:00 3.9 8 Oeste 16 Noroeste 0 -- -- 78
2019-06-12 00:00:00 5 14 Noroeste 23 Noroeste 0 -- -- 73
2019-06-11 23:00:00 5.1 8 Noroeste 19 Noroeste 0 -- -- 74
2019-06-11 22:00:00 6.1 15 Oeste 32 Noroeste 0 -- -- 69
2019-06-11 21:00:00 8.2 20 Noroeste 31 Norte 0 -- -- 59
2019-06-11 20:00:00 9.3 15 Noroeste 29 Norte 0 -- -- 61
2019-06-11 19:00:00 8.3 16 Noroeste 40 Noroeste 0 -- -- 69
2019-06-11 18:00:00 8.6 23 Noroeste 38 Noroeste 0 -- -- 68
2019-06-11 17:00:00 7.3 19 Noroeste 29 Noroeste 0 -- -- 74
2019-06-11 16:00:00 6.1 21 Noroeste 31 Noroeste 0 -- -- 86
2019-06-11 15:00:00 5.6 18 Noroeste 31 Noroeste 0 -- -- 87
2019-06-11 14:00:00 6.4 15 Noroeste 23 Norte 0.2 -- -- 85
2019-06-11 13:00:00 6.5 13 Noroeste 24 Norte 0.2 -- -- 87
2019-06-11 12:00:00 9.5 13 Norte 21 Nordeste 0 -- -- 68
2019-06-11 11:00:00 9.9 10 Norte 17 Norte 0 -- -- 66
2019-06-11 10:00:00 8.8 7 Norte 13 Norte 0 -- -- 70
2019-06-11 09:00:00 7.8 5 Noroeste 12 Noroeste 0 -- -- 73
2019-06-11 08:00:00 7.6 0 Calma 6 Norte 0 -- -- 78
2019-06-11 07:00:00 7.3 6 Noroeste 9 Noroeste 0 -- -- 78
2019-06-11 06:00:00 10.1 5 Sur 22 Sur 0 -- -- 70
2019-06-11 05:00:00 9.6 14 Sur 21 Sur 0 -- -- 77
2019-06-11 04:00:00 9.7 14 Sur 23 Sur 0 -- -- 78
2019-06-11 03:00:00 8.2 0 Calma 5 Oeste 0 -- -- 80
2019-06-11 02:00:00 8.9 4 Oeste 8 Oeste 0 -- -- 73
2019-06-11 01:00:00 9.4 6 Noroeste 10 Oeste 0 -- -- 70
2019-06-11 00:00:00 10.2 8 Oeste 16 Noroeste 0 -- -- 66
2019-06-10 23:00:00 12 9 Oeste 15 Oeste 0 -- -- 58
2019-06-10 22:00:00 15.2 10 Oeste 19 Oeste 0 -- -- 41
2019-06-10 21:00:00 16.9 9 Oeste 26 Oeste 0 -- -- 37
2019-06-10 20:00:00 18.4 14 Oeste 29 Oeste 0 -- -- 33
2019-06-10 19:00:00 19.4 9 Norte 17 Nordeste 0 -- -- 39
2019-06-10 18:00:00 18.5 9 Noroeste 17 Noroeste 0 -- -- 42
2019-06-10 17:00:00 18.9 3 Oeste 15 Nordeste 0 -- -- 37
2019-06-10 16:00:00 18.4 3 Noroeste 15 Este 0 -- -- 41
2019-06-10 15:00:00 17.8 9 Nordeste 20 Nordeste 0 -- -- 45
2019-06-10 14:00:00 17 8 Sudeste 20 Este 0 -- -- 50
2019-06-10 13:00:00 15.4 9 Este 16 Nordeste 0 -- -- 59
2019-06-10 12:00:00 16.1 7 Nordeste 21 Nordeste 0 -- -- 53
2019-06-10 11:00:00 15.9 5 Nordeste 22 Nordeste 0 -- -- 47
2019-06-10 10:00:00 14.7 8 Norte 22 Noroeste 0 -- -- 48
2019-06-10 09:00:00 13.1 8 Noroeste 18 Noroeste 0 -- -- 52
2019-06-10 08:00:00 11.8 13 Oeste 19 Oeste 0 -- -- 58
2019-06-10 07:00:00 9.1 13 Oeste 19 Oeste 0 -- -- 66
2019-06-10 06:00:00 8.8 9 Oeste 13 Oeste 0 -- -- 54
2019-06-10 05:00:00 10.2 8 Oeste 14 Oeste 0 -- -- 49
2019-06-10 04:00:00 13.7 14 Oeste 27 Oeste 0 -- -- 41
2019-06-10 03:00:00 14.4 19 Oeste 36 Oeste 0 -- -- 33
2019-06-10 02:00:00 14.9 19 Oeste 32 Oeste 0 -- -- 29
2019-06-10 01:00:00 15 19 Oeste 31 Oeste 0 -- -- 33
2019-06-10 00:00:00 16 15 Oeste 23 Oeste 0 -- -- 34
2019-06-09 23:00:00 16.6 12 Oeste 18 Oeste 0 -- -- 33
2019-06-09 22:00:00 16.9 8 Oeste 16 Oeste 0 -- -- 34
2019-06-09 21:00:00 19.3 7 Oeste 22 Oeste 0 -- -- 31
2019-06-09 20:00:00 20.5 12 Oeste 30 Oeste 0 -- -- 29
2019-06-09 19:00:00 21.7 15 Sudoeste 27 Oeste 0 -- -- 28
2019-06-09 18:00:00 21.5 9 Sudoeste 31 Oeste 0 -- -- 30
2019-06-09 17:00:00 22.5 15 Sudoeste 42 Sur 0 -- -- 30
2019-06-09 16:00:00 22.4 12 Oeste 30 Sudoeste 0 -- -- 30
2019-06-09 15:00:00 21.9 11 Oeste 30 Oeste 0 -- -- 32
2019-06-09 14:00:00 21.2 9 Oeste 34 Oeste 0 -- -- 35
2019-06-09 13:00:00 20.2 17 Noroeste 35 Oeste 0 -- -- 39
2019-06-09 12:00:00 19.5 11 Sudeste 23 Oeste 0 -- -- 49
2019-06-09 11:00:00 18.5 14 Oeste 24 Oeste 0 -- -- 41
2019-06-09 10:00:00 15.8 3 Este 11 Este 0 -- -- 56
2019-06-09 09:00:00 11.8 5 Sudeste 18 Oeste 0 -- -- 67
2019-06-09 08:00:00 12.3 8 Sudoeste 26 Sur 0 -- -- 65
2019-06-09 07:00:00 11.4 17 Sur 27 Sur 0 -- -- 62
2019-06-09 06:00:00 11.1 17 Sur 23 Sur 0 -- -- 60
2019-06-09 05:00:00 11.2 17 Sur 28 Sur 0 -- -- 60
2019-06-09 04:00:00 11.8 17 Sur 28 Sudeste 0 -- -- 58
2019-06-09 03:00:00 12.5 16 Sur 34 Sur 0 -- -- 53
2019-06-09 02:00:00 12.7 17 Sur 28 Sudeste 0 -- -- 51
2019-06-09 01:00:00 12.7 12 Sur 25 Sur 0 -- -- 44
2019-06-09 00:00:00 12.2 17 Sur 27 Sur 0 -- -- 56
2019-06-08 23:00:00 12.6 18 Sur 30 Sur 0 -- -- 58
2019-06-08 22:00:00 11.6 20 Sur 32 Sudeste 0 -- -- 69
2019-06-08 21:00:00 12.6 24 Sudeste 35 Sudeste 0 -- -- 66
2019-06-08 20:00:00 13.5 23 Sudeste 34 Sudeste 0 -- -- 62
2019-06-08 19:00:00 15 24 Sudeste 44 Sudeste 0 -- -- 57
2019-06-08 18:00:00 16.3 19 Sudeste 37 Sudeste 0 -- -- 54
2019-06-08 17:00:00 16.3 22 Sudeste 40 Este 0 -- -- 55
2019-06-08 16:00:00 16 26 Sudeste 42 Sudeste 0 -- -- 58
2019-06-08 15:00:00 17 24 Sudeste 47 Este 0 -- -- 57
2019-06-08 14:00:00 16.5 27 Sudeste 46 Sudeste 0 -- -- 58
2019-06-08 13:00:00 16.3 21 Sudeste 44 Sudeste 0 -- -- 61
2019-06-08 12:00:00 15.1 24 Sudeste 42 Sudeste 0 -- -- 59
2019-06-08 11:00:00 14.4 18 Sudeste 31 Sudeste 0 -- -- 58
2019-06-08 10:00:00 12.5 19 Este 35 Sudeste 0 -- -- 59
2019-06-08 09:00:00 12.2 14 Sudeste 23 Sudeste 0 -- -- 53
2019-06-08 08:00:00 10.4 11 Sudeste 17 Sudeste 0 -- -- 55
2019-06-08 07:00:00 9.4 9 Sudeste 14 Sudeste 0 -- -- 61
2019-06-08 06:00:00 8 0 Calma 4 Sudeste 0 -- -- 67
2019-06-08 05:00:00 7.8 3 Oeste 8 Oeste 0 -- -- 68
2019-06-08 04:00:00 8.1 6 Oeste 9 Oeste 0 -- -- 63
2019-06-08 03:00:00 8.6 6 Oeste 14 Oeste 0 -- -- 55
2019-06-08 02:00:00 9.6 12 Oeste 19 Oeste 0 -- -- 49
2019-06-08 01:00:00 9.7 12 Oeste 19 Oeste 0 -- -- 49
2019-06-08 00:00:00 10.2 10 Oeste 17 Noroeste 0 -- -- 48
2019-06-07 23:00:00 11.1 9 Oeste 13 Noroeste 0 -- -- 44
2019-06-07 22:00:00 12.2 8 Oeste 14 Oeste 0 -- -- 36
2019-06-07 21:00:00 15.6 9 Oeste 16 Noroeste 0 -- -- 28
2019-06-07 20:00:00 17.4 11 Oeste 23 Oeste 0 -- -- 22
2019-06-07 19:00:00 17.9 4 Sur 21 Oeste 0 -- -- 25
2019-06-07 18:00:00 17.8 13 Oeste 26 Noroeste 0 -- -- 23
2019-06-07 17:00:00 17.8 15 Noroeste 30 Sudoeste 0 -- -- 25
2019-06-07 16:00:00 17.2 12 Sudoeste 32 Oeste 0 -- -- 20
2019-06-07 15:00:00 16.2 14 Sudoeste 40 Oeste 0 -- -- 22
2019-06-07 14:00:00 15.6 20 Oeste 35 Sudoeste 0 -- -- 28
2019-06-07 13:00:00 14.4 18 Oeste 34 Oeste 0 -- -- 37
2019-06-07 12:00:00 12.6 20 Oeste 41 Oeste 0 -- -- 54
2019-06-07 11:00:00 12 24 Oeste 45 Sudoeste 0 -- -- 62
2019-06-07 10:00:00 11.8 15 Sudoeste 40 Sudoeste 0 -- -- 67
2019-06-07 09:00:00 11.1 15 Oeste 33 Noroeste 0 -- -- 71
2019-06-07 08:00:00 10.2 10 Oeste 37 Oeste 0 -- -- 76
2019-06-07 07:00:00 7.8 4 Sudeste 18 Sur 0 -- -- 78
2019-06-07 06:00:00 7.4 8 Sudeste 27 Sur 0 -- -- 77
2019-06-07 05:00:00 8.4 11 Sur 26 Sur 0 -- -- 71
2019-06-07 04:00:00 7.8 9 Sudeste 22 Sur 0 -- -- 95
2019-06-07 03:00:00 8.6 7 Sudeste 23 Sudeste 0 -- -- 95
2019-06-07 02:00:00 8.8 16 Sudeste 31 Sudeste 0 -- -- 94
2019-06-07 01:00:00 8.8 21 Sudeste 40 Sudeste 0 -- -- 91
2019-06-07 00:00:00 9.2 22 Sudeste 44 Sudeste 0 -- -- 84
2019-06-06 23:00:00 9.6 23 Sudeste 37 Sudeste 0 -- -- 74
2019-06-06 22:00:00 10.5 19 Sudeste 41 Sudeste 0 -- -- 69
2019-06-06 21:00:00 12.3 24 Sudeste 45 Sudeste 0 -- -- 71
2019-06-06 20:00:00 14.1 26 Sudeste 48 Sudeste 0 -- -- 62
2019-06-06 19:00:00 15.2 29 Sudeste 50 Sudeste 0 -- -- 57
2019-06-06 18:00:00 16.9 27 Sudeste 51 Sur 0 -- -- 53
2019-06-06 17:00:00 18.6 22 Sur 45 Sur 0 -- -- 31
2019-06-06 16:00:00 17.8 22 Sudeste 50 Sudeste 0 -- -- 32
2019-06-06 15:00:00 17.4 18 Sur 42 Sudeste 0 -- -- 36
2019-06-06 14:00:00 16.5 19 Sur 45 Sudeste 0 -- -- 38
2019-06-06 13:00:00 15.4 21 Sudeste 42 Sur 0 -- -- 38
2019-06-06 12:00:00 14.5 15 Sur 36 Sur 0 -- -- 41
2019-06-06 11:00:00 13.4 17 Sur 36 Sudeste 0 -- -- 41
2019-06-06 10:00:00 12.4 17 Sudeste 28 Sur 0 -- -- 47
2019-06-06 09:00:00 11 10 Sudeste 19 Sudeste 0 -- -- 50
2019-06-06 08:00:00 9.3 9 Sudeste 16 Sur 0 -- -- 57
2019-06-06 07:00:00 6.6 12 Sudeste 14 Sudeste 0 -- -- 59
2019-06-06 06:00:00 7.1 4 Sudoeste 11 Sudoeste 0 -- -- 55
2019-06-06 05:00:00 7.7 6 Sudoeste 15 Sudoeste 0 -- -- 53
2019-06-06 04:00:00 8.2 6 Sudoeste 16 Sudoeste 0 -- -- 48
2019-06-06 03:00:00 8.9 4 Sur 12 Sur 0 -- -- 46
2019-06-06 02:00:00 8.3 4 Sudoeste 12 Sudoeste 0 -- -- 50
2019-06-06 01:00:00 8.7 9 Sudoeste 14 Sudoeste 0 -- -- 48
2019-06-06 00:00:00 9.2 10 Sudoeste 15 Sudoeste 0 -- -- 47
2019-06-05 23:00:00 9.4 9 Sudoeste 13 Sudoeste 0 -- -- 46
2019-06-05 22:00:00 10.8 8 Oeste 23 Oeste 0 -- -- 43
2019-06-05 21:00:00 13.2 13 Oeste 27 Oeste 0 -- -- 35
2019-06-05 20:00:00 13.4 14 Oeste 25 Oeste 0 -- -- 35
2019-06-05 19:00:00 14.7 16 Oeste 31 Noroeste 0 -- -- 33
2019-06-05 18:00:00 15 16 Noroeste 39 Noroeste 0 -- -- 34
2019-06-05 17:00:00 14.3 24 Noroeste 42 Oeste 0 -- -- 33
2019-06-05 16:00:00 13.6 26 Noroeste 42 Oeste 0 -- -- 36
2019-06-05 15:00:00 13.4 27 Noroeste 50 Noroeste 0 -- -- 41
2019-06-05 14:00:00 12.4 29 Noroeste 60 Oeste 0 -- -- 43
2019-06-05 13:00:00 11.9 36 Oeste 53 Oeste 0 -- -- 47
2019-06-05 12:00:00 12.1 29 Oeste 49 Sudoeste 0 -- -- 45
2019-06-05 11:00:00 11.3 22 Oeste 50 Sudoeste 0 -- -- 48
2019-06-05 10:00:00 11.2 26 Sudoeste 58 Sudoeste 0 -- -- 59
2019-06-05 09:00:00 10.7 30 Sudoeste 51 Sudoeste 0.2 -- -- 70
2019-06-05 08:00:00 11.2 13 Sudoeste 37 Sudoeste 0 -- -- 74
2019-06-05 07:00:00 11.5 8 Oeste 21 Oeste 0 -- -- 73
2019-06-05 06:00:00 12.8 12 Oeste 26 Sudoeste 0 -- -- 65
2019-06-05 05:00:00 14.1 7 Sudoeste 31 Oeste 0 -- -- 61
2019-06-05 04:00:00 14.4 10 Sudoeste 24 Oeste 0 -- -- 54
2019-06-05 03:00:00 14.6 13 Sudoeste 21 Sudoeste 0 -- -- 53
2019-06-05 02:00:00 15 7 Sudoeste 15 Sudoeste 0 -- -- 51
2019-06-05 01:00:00 15.2 3 Sur 15 Sudeste 0 -- -- 50
2019-06-05 00:00:00 15.1 9 Sur 18 Sur 0 -- -- 49
2019-06-04 23:00:00 15.9 12 Sur 19 Sur 0 -- -- 47
2019-06-04 22:00:00 17 15 Sudeste 26 Sudeste 0 -- -- 50
2019-06-04 21:00:00 20.5 14 Sudeste 28 Oeste 0 -- -- 40
2019-06-04 20:00:00 22.4 14 Sur 31 Sur 0 -- -- 28
2019-06-04 19:00:00 23 16 Sur 48 Sudoeste 0 -- -- 29
2019-06-04 18:00:00 24.2 10 Sur 51 Sur 0 -- -- 24
2019-06-04 17:00:00 24.3 17 Sur 44 Sudeste 0 -- -- 26
2019-06-04 16:00:00 24 14 Sudeste 39 Sur 0 -- -- 29
2019-06-04 15:00:00 23.6 15 Sur 39 Sur 0 -- -- 30
2019-06-04 14:00:00 23.3 17 Sur 41 Sudeste 0 -- -- 30
2019-06-04 13:00:00 22.9 12 Sur 35 Sudeste 0 -- -- 36
2019-06-04 12:00:00 22.3 16 Sur 34 Oeste 0 -- -- 38
2019-06-04 11:00:00 21.4 8 Sudoeste 32 Sudoeste 0 -- -- 35
2019-06-04 10:00:00 20 10 Sudoeste 24 Sudoeste 0 -- -- 37
2019-06-04 09:00:00 18.6 14 Oeste 29 Oeste 0 -- -- 39
2019-06-04 08:00:00 18.5 10 Oeste 28 Oeste 0 -- -- 37
2019-06-04 07:00:00 16.8 17 Sudoeste 28 Sudoeste 0 -- -- 39
2019-06-04 06:00:00 16.1 19 Sudoeste 27 Sudoeste 0 -- -- 48
2019-06-04 05:00:00 15.8 18 Sudoeste 31 Sudoeste 0 -- -- 50
2019-06-04 04:00:00 15.6 11 Sur 21 Sudoeste 0 -- -- 50
2019-06-04 03:00:00 15.1 11 Sur 17 Sur 0 -- -- 51
2019-06-04 02:00:00 15.4 8 Sudeste 15 Sur 0 -- -- 52
2019-06-04 01:00:00 14.5 8 Sudeste 17 Sudeste 0 -- -- 54
2019-06-04 00:00:00 14.9 12 Sur 24 Sudeste 0 -- -- 53
2019-06-03 23:00:00 15.1 16 Sur 27 Sudeste 0 -- -- 56
2019-06-03 22:00:00 16.7 17 Sur 22 Sur 0 -- -- 54
2019-06-03 21:00:00 19.4 16 Sudeste 24 Sudeste 0 -- -- 50
2019-06-03 20:00:00 24.2 10 Sur 28 Sudoeste 0 -- -- 26
2019-06-03 19:00:00 25.7 11 Sudoeste 29 Oeste 0 -- -- 23
2019-06-03 18:00:00 25.3 9 Sur 44 Sur 0 -- -- 29
2019-06-03 17:00:00 26.1 14 Oeste 32 Sudoeste 0 -- -- 27
2019-06-03 16:00:00 26.4 11 Sur 42 Sudoeste 0 -- -- 27
2019-06-03 15:00:00 25.4 10 Sudoeste 33 Sur 0 -- -- 29
2019-06-03 14:00:00 24.8 13 Sudoeste 32 Sudoeste 0 -- -- 30
2019-06-03 13:00:00 24.7 10 Sudeste 36 Sudoeste 0 -- -- 30
2019-06-03 12:00:00 24.6 6 Norte 18 Oeste 0 -- -- 30
2019-06-03 11:00:00 22.6 11 Sudeste 19 Sudeste 0 -- -- 40
2019-06-03 10:00:00 20.7 5 Nordeste 20 Oeste 0 -- -- 42
2019-06-03 09:00:00 21.1 13 Sudoeste 31 Sudoeste 0 -- -- 35
2019-06-03 08:00:00 18.5 16 Sudoeste 33 Sudoeste 0 -- -- 38
2019-06-03 07:00:00 17.5 10 Sudoeste 26 Sudoeste 0 -- -- 37
2019-06-03 06:00:00 17.5 11 Sur 34 Sudoeste 0 -- -- 37
2019-06-03 05:00:00 17.6 15 Sudoeste 29 Sudoeste 0 -- -- 38
2019-06-03 04:00:00 17.3 12 Sur 26 Sur 0 -- -- 39
2019-06-03 03:00:00 17.6 12 Sur 33 Sur 0 -- -- 38
2019-06-03 02:00:00 17.1 15 Sur 40 Sur 0 -- -- 39
2019-06-03 01:00:00 15.7 17 Sur 26 Sur 0 -- -- 45
2019-06-03 00:00:00 15.7 16 Sur 25 Sur 0 -- -- 48
2019-06-02 23:00:00 15.3 17 Sur 26 Sudeste 0 -- -- 53
2019-06-02 22:00:00 16.4 15 Sur 26 Sudeste 0 -- -- 49
2019-06-02 21:00:00 18.4 21 Sudeste 31 Sur 0 -- -- 46
2019-06-02 20:00:00 20.4 21 Sudeste 34 Sudeste 0 -- -- 43
2019-06-02 19:00:00 22.8 18 Sudeste 27 Sudeste 0 -- -- 38
2019-06-02 18:00:00 23.1 16 Sudeste 31 Sudeste 0 -- -- 36
2019-06-02 17:00:00 26 5 Sur 21 Sur 0 -- -- 32
2019-06-02 16:00:00 24.8 8 Sudeste 20 Sur 0 -- -- 33
2019-06-02 15:00:00 24.3 6 Sudeste 16 Sudeste 0 -- -- 34
2019-06-02 14:00:00 24 9 Nordeste 27 Nordeste 0 -- -- 34
2019-06-02 13:00:00 23.8 12 Sudeste 24 Este 0 -- -- 36
2019-06-02 12:00:00 23.5 16 Este 26 Este 0 -- -- 38
2019-06-02 11:00:00 22.9 3 Norte 13 Este 0 -- -- 34
2019-06-02 10:00:00 21.1 3 Norte 6 Norte 0 -- -- 41
2019-06-02 09:00:00 18.8 5 Este 8 Nordeste 0 -- -- 45
2019-06-02 08:00:00 16.6 3 Sudeste 6 Sudeste 0 -- -- 49
2019-06-02 07:00:00 13.7 3 Noroeste 19 Sudoeste 0 -- -- 52
2019-06-02 06:00:00 13.6 3 Sudeste 13 Sudoeste 0 -- -- 53
2019-06-02 05:00:00 15.6 7 Sudoeste 33 Sudoeste 0 -- -- 47
2019-06-02 04:00:00 15.6 16 Sudoeste 36 Sudoeste 0 -- -- 46
2019-06-02 03:00:00 15.4 23 Sudoeste 35 Sudoeste 0 -- -- 49
2019-06-02 02:00:00 15.6 14 Sudoeste 27 Sudoeste 0 -- -- 51
2019-06-02 01:00:00 14.8 17 Sur 33 Sur 0 -- -- 48
2019-06-02 00:00:00 14.6 21 Sur 30 Sur 0 -- -- 45
2019-06-01 23:00:00 14.9 16 Sur 26 Sur 0 -- -- 50
2019-06-01 22:00:00 15.5 18 Sur 25 Sur 0 -- -- 50
2019-06-01 21:00:00 16.2 17 Sur 30 Sudeste 0 -- -- 50
2019-06-01 20:00:00 18.6 18 Sudeste 30 Sudeste 0 -- -- 46
2019-06-01 19:00:00 21.6 14 Sudeste 31 Sudeste 0 -- -- 39
2019-06-01 18:00:00 24.3 8 Sur 17 Sudeste 0 -- -- 32
2019-06-01 17:00:00 23 13 Sur 28 Este 0 -- -- 31
2019-06-01 16:00:00 23.9 12 Sudeste 25 Este 0 -- -- 36
2019-06-01 15:00:00 23.7 11 Nordeste 22 Nordeste 0 -- -- 36
2019-06-01 14:00:00 22.7 10 Sur 23 Sudeste 0 -- -- 37
2019-06-01 13:00:00 21.4 10 Este 22 Este 0 -- -- 36
2019-06-01 12:00:00 20.7 10 Este 20 Este 0 -- -- 40
2019-06-01 11:00:00 19.8 6 Este 13 Este 0 -- -- 43
2019-06-01 10:00:00 18 3 Este 8 Este 0 -- -- 51
2019-06-01 09:00:00 16.6 4 Este 8 Nordeste 0 -- -- 57
2019-06-01 08:00:00 14.3 0 Calma 4 Sudeste 0 -- -- 65
2019-06-01 07:00:00 11.6 0 Calma 4 Sudeste 0 -- -- 68
2019-06-01 06:00:00 10.7 0 Calma 8 Noroeste 0 -- -- 71
2019-06-01 05:00:00 10.4 2 Norte 6 Noroeste 0 -- -- 70
2019-06-01 04:00:00 10.3 0 Calma 10 Sudeste 0 -- -- 70
2019-06-01 03:00:00 10.4 4 Sudeste 19 Sur 0 -- -- 71
2019-06-01 02:00:00 13.9 5 Sur 17 Sur 0 -- -- 54
2019-06-01 01:00:00 13.8 11 Sur 23 Sur 0 -- -- 58
2019-06-01 00:00:00 13.1 4 Noroeste 9 Sur 0 -- -- 67
2019-05-31 23:00:00 12.9 8 Sur 14 Sudeste 0 -- -- 70
2019-05-31 22:00:00 14.2 13 Sur 25 Sudeste 0 -- -- 65
2019-05-31 21:00:00 15.7 19 Sur 28 Sudeste 0 -- -- 60
2019-05-31 20:00:00 19 19 Sudeste 31 Sudeste 0 -- -- 49
2019-05-31 19:00:00 21.7 15 Sudeste 32 Este 0 -- -- 41
2019-05-31 18:00:00 23.1 12 Sudeste 27 Este 0 -- -- 28
2019-05-31 17:00:00 23.3 12 Este 29 Nordeste 0 -- -- 25
2019-05-31 16:00:00 23.1 11 Este 24 Este 0 -- -- 27
2019-05-31 15:00:00 22.8 6 Nordeste 27 Este 0 -- -- 29
2019-05-31 14:00:00 21.6 4 Noroeste 27 Este 0 -- -- 34
2019-05-31 13:00:00 20.8 6 Sudeste 19 Sudeste 0 -- -- 32
2019-05-31 12:00:00 19.6 10 Este 22 Sudeste 0 -- -- 36
2019-05-31 11:00:00 18.6 3 Sudoeste 12 Sudeste 0 -- -- 40
2019-05-31 10:00:00 17.4 4 Este 10 Este 0 -- -- 47
2019-05-31 09:00:00 16.4 5 Este 9 Sudeste 0 -- -- 49
2019-05-31 08:00:00 14.1 2 Sudeste 6 Sudeste 0 -- -- 56
2019-05-31 07:00:00 11.9 5 Oeste 8 Oeste 0 -- -- 58
2019-05-31 06:00:00 11.8 5 Oeste 7 Oeste 0 -- -- 56
2019-05-31 05:00:00 12.2 4 Oeste 8 Oeste 0 -- -- 55
2019-05-31 04:00:00 10.9 5 Oeste 7 Oeste 0 -- -- 59
2019-05-31 03:00:00 11.5 6 Sudeste 8 Sur 0 -- -- 58
2019-05-31 02:00:00 12.3 3 Sur 9 Sudeste 0 -- -- 53
2019-05-31 01:00:00 13.5 3 Oeste 10 Oeste 0 -- -- 47
2019-05-31 00:00:00 13.3 5 Oeste 8 Oeste 0 -- -- 49
2019-05-30 23:00:00 14 0 Calma 10 Sudeste 0 -- -- 48
2019-05-30 22:00:00 15.8 4 Oeste 15 Noroeste 0 -- -- 44
2019-05-30 21:00:00 18.7 13 Norte 24 Norte 0 -- -- 36
2019-05-30 20:00:00 20.2 15 Norte 31 Norte 0 -- -- 32
2019-05-30 19:00:00 21.1 15 Norte 27 Noroeste 0 -- -- 30
2019-05-30 18:00:00 21.5 13 Norte 27 Norte 0 -- -- 32
2019-05-30 17:00:00 21.7 11 Norte 24 Noroeste 0 -- -- 33
2019-05-30 16:00:00 21.2 11 Norte 23 Norte 0 -- -- 36
2019-05-30 15:00:00 20.3 8 Este 27 Nordeste 0 -- -- 36
2019-05-30 14:00:00 19.3 8 Noroeste 17 Norte 0 -- -- 37
2019-05-30 13:00:00 18.2 6 Nordeste 17 Nordeste 0 -- -- 41
2019-05-30 12:00:00 16.8 4 Este 13 Noroeste 0 -- -- 41
2019-05-30 11:00:00 15.3 7 Norte 15 Nordeste 0 -- -- 47
2019-05-30 10:00:00 13.1 4 Norte 13 Nordeste 0 -- -- 55
2019-05-30 09:00:00 10.7 11 Noroeste 18 Noroeste 0 -- -- 60
2019-05-30 08:00:00 9.5 14 Noroeste 22 Noroeste 0 -- -- 63
2019-05-30 07:00:00 7.7 14 Oeste 23 Oeste 0 -- -- 70
2019-05-30 06:00:00 7.2 16 Oeste 22 Oeste 0 -- -- 73
2019-05-30 05:00:00 7.1 15 Oeste 28 Oeste 0 -- -- 74
2019-05-30 04:00:00 6.9 20 Oeste 26 Oeste 0 -- -- 78
2019-05-30 03:00:00 6.7 17 Noroeste 25 Noroeste 0 -- -- 78
2019-05-30 02:00:00 7.4 10 Oeste 24 Noroeste 0 -- -- 77
2019-05-30 01:00:00 7.7 14 Noroeste 25 Noroeste 0 -- -- 77
2019-05-30 00:00:00 8.9 16 Noroeste 22 Noroeste 0 -- -- 72
2019-05-29 23:00:00 10.3 10 Noroeste 25 Noroeste 0 -- -- 67
2019-05-29 22:00:00 12 15 Noroeste 33 Noroeste 0 -- -- 59
2019-05-29 21:00:00 14.1 22 Noroeste 40 Noroeste 0 -- -- 51
2019-05-29 20:00:00 15.7 21 Noroeste 39 Noroeste 0 -- -- 46
2019-05-29 19:00:00 15.9 22 Norte 39 Norte 0 -- -- 44
2019-05-29 18:00:00 16.4 24 Noroeste 44 Noroeste 0 -- -- 43
2019-05-29 17:00:00 16.2 19 Norte 39 Noroeste 0 -- -- 44
2019-05-29 16:00:00 15.4 23 Norte 41 Noroeste 0 -- -- 40
2019-05-29 15:00:00 14.9 23 Noroeste 41 Norte 0 -- -- 42
2019-05-29 14:00:00 13.4 27 Noroeste 42 Noroeste 0 -- -- 46
2019-05-29 13:00:00 11.8 32 Noroeste 47 Noroeste 0 -- -- 51
2019-05-29 12:00:00 10.3 24 Norte 48 Norte 0 -- -- 55
2019-05-29 11:00:00 8.9 30 Norte 55 Norte 0 -- -- 58
2019-05-29 10:00:00 7.4 34 Noroeste 57 Norte 0 -- -- 65
2019-05-29 09:00:00 5.9 28 Noroeste 46 Noroeste 0 -- -- 71
2019-05-29 08:00:00 4.6 26 Noroeste 41 Noroeste 0 -- -- 72
2019-05-29 07:00:00 3.6 29 Noroeste 56 Noroeste 0 -- -- 76
2019-05-29 06:00:00 3.3 29 Noroeste 55 Noroeste 0 -- -- 78
2019-05-29 05:00:00 3.3 27 Noroeste 41 Oeste 0 -- -- 82
2019-05-29 04:00:00 3.3 30 Noroeste 42 Noroeste 0 -- -- 82
2019-05-29 03:00:00 3.8 21 Noroeste 35 Noroeste 0 -- -- 82
2019-05-29 02:00:00 4.5 17 Oeste 25 Noroeste 0 -- -- 81
2019-05-29 01:00:00 5.2 18 Noroeste 28 Noroeste 0 -- -- 79
2019-05-29 00:00:00 6.3 18 Noroeste 34 Oeste 0 -- -- 73
2019-05-28 23:00:00 7.4 20 Noroeste 35 Noroeste 0 -- -- 72
2019-05-28 22:00:00 8.3 18 Noroeste 32 Noroeste 0 -- -- 70
2019-05-28 21:00:00 10.8 18 Norte 40 Norte 0 -- -- 61
2019-05-28 20:00:00 12.8 20 Norte 39 Norte 0 -- -- 54
2019-05-28 19:00:00 15.7 27 Noroeste 40 Norte 0 -- -- 40
2019-05-28 18:00:00 16.6 24 Noroeste 41 Noroeste 0 -- -- 33
2019-05-28 17:00:00 17.1 22 Noroeste 39 Noroeste 0 -- -- 35
2019-05-28 16:00:00 17 21 Noroeste 33 Noroeste 0 -- -- 36
2019-05-28 15:00:00 16.3 14 Norte 30 Norte 0 -- -- 43
2019-05-28 14:00:00 15.1 13 Norte 27 Noroeste 0 -- -- 53
2019-05-28 13:00:00 13.9 16 Norte 28 Norte 0 -- -- 56
2019-05-28 12:00:00 13.3 13 Noroeste 23 Noroeste 0 -- -- 55
2019-05-28 11:00:00 10.6 10 Norte 19 Norte 0 -- -- 69
2019-05-28 10:00:00 9 8 Norte 15 Nordeste 0 -- -- 78
2019-05-28 09:00:00 6.7 9 Oeste 15 Oeste 0 -- -- 98
2019-05-28 08:00:00 5.8 6 Oeste 11 Oeste 0 -- -- 97
2019-05-28 07:00:00 6 6 Noroeste 9 Noroeste 0 -- -- 96
2019-05-28 06:00:00 6.5 2 Noroeste 8 Noroeste 0 -- -- 94
2019-05-28 05:00:00 6.9 4 Oeste 11 Noroeste 0 -- -- 92
2019-05-28 04:00:00 7.7 10 Noroeste 15 Noroeste 0 -- -- 90
2019-05-28 03:00:00 8.6 15 Noroeste 24 Noroeste 0 -- -- 88
2019-05-28 02:00:00 8.9 18 Noroeste 29 Noroeste 0 -- -- 90
2019-05-28 01:00:00 9.1 15 Noroeste 25 Norte 0 -- -- 88
2019-05-28 00:00:00 9.6 16 Noroeste 25 Noroeste 0 -- -- 82
2019-05-27 23:00:00 10.5 17 Noroeste 30 Noroeste 0 -- -- 76
2019-05-27 22:00:00 12.1 18 Noroeste 28 Noroeste 0 -- -- 71
2019-05-27 21:00:00 14.7 12 Norte 25 Norte 0 -- -- 61
2019-05-27 20:00:00 16.7 16 Norte 30 Norte 0 -- -- 54
2019-05-27 19:00:00 17.5 15 Norte 31 Norte 0 -- -- 51
2019-05-27 18:00:00 17.9 13 Nordeste 25 Noroeste 0 -- -- 47
2019-05-27 17:00:00 19.2 13 Norte 28 Nordeste 0 -- -- 41
2019-05-27 16:00:00 19.7 13 Norte 35 Noroeste 0 -- -- 41
2019-05-27 15:00:00 19.9 19 Noroeste 33 Norte 0 -- -- 38
2019-05-27 14:00:00 18.7 17 Norte 34 Noroeste 0 -- -- 41
2019-05-27 13:00:00 17.6 21 Noroeste 33 Noroeste 0 -- -- 41
2019-05-27 12:00:00 16.8 18 Noroeste 32 Noroeste 0 -- -- 44
2019-05-27 11:00:00 15.7 21 Noroeste 32 Noroeste 0 -- -- 50
2019-05-27 10:00:00 14.4 21 Noroeste 33 Noroeste 0 -- -- 54
2019-05-27 09:00:00 12.5 19 Noroeste 30 Noroeste 0 -- -- 62
2019-05-27 08:00:00 10.7 23 Noroeste 36 Oeste 0 -- -- 63
2019-05-27 07:00:00 9.2 14 Oeste 23 Noroeste 0 -- -- 68
2019-05-27 06:00:00 8.9 15 Noroeste 26 Noroeste 0 -- -- 69
2019-05-27 05:00:00 9.5 18 Noroeste 27 Noroeste 0 -- -- 66
2019-05-27 04:00:00 9 17 Oeste 27 Noroeste 0 -- -- 70
2019-05-27 03:00:00 8.8 13 Oeste 23 Oeste 0 -- -- 71
2019-05-27 02:00:00 9.2 16 Oeste 30 Noroeste 0 -- -- 69
2019-05-27 01:00:00 8.1 19 Oeste 27 Oeste 0 -- -- 81
2019-05-27 00:00:00 8 17 Noroeste 23 Noroeste 0 -- -- 82
2019-05-26 23:00:00 8.9 15 Noroeste 19 Oeste 0 -- -- 78
2019-05-26 22:00:00 10.3 9 Noroeste 20 Noroeste 0 -- -- 73
2019-05-26 21:00:00 12.5 13 Norte 23 Noroeste 0 -- -- 65
2019-05-26 20:00:00 14.6 15 Norte 32 Norte 0 -- -- 56
2019-05-26 19:00:00 15.2 12 Norte 29 Noroeste 0 -- -- 51
2019-05-26 18:00:00 15.1 14 Norte 33 Norte 0 -- -- 51
2019-05-26 17:00:00 15.1 17 Norte 36 Norte 0 -- -- 51
2019-05-26 16:00:00 14.6 19 Norte 36 Norte 0 -- -- 53
2019-05-26 15:00:00 13.9 19 Norte 34 Nordeste 0 -- -- 58
2019-05-26 14:00:00 12.4 19 Norte 42 Noroeste 0 -- -- 61
2019-05-26 13:00:00 10.7 23 Norte 35 Norte 0 -- -- 66
2019-05-26 12:00:00 9 19 Norte 33 Norte 0 -- -- 73
2019-05-26 11:00:00 7.9 17 Norte 31 Noroeste 0 -- -- 77
2019-05-26 10:00:00 5.6 17 Noroeste 27 Norte 0 -- -- 86
2019-05-26 09:00:00 5.2 19 Norte 27 Noroeste 0 -- -- 87
2019-05-26 08:00:00 4.7 14 Noroeste 26 Noroeste 0 -- -- 91
2019-05-26 07:00:00 4.6 19 Noroeste 33 Noroeste 0 -- -- 90
2019-05-26 06:00:00 4.5 14 Noroeste 20 Noroeste 0 -- -- 92
2019-05-26 05:00:00 4.6 14 Noroeste 23 Noroeste 0 -- -- 92
2019-05-26 04:00:00 5.6 12 Noroeste 21 Noroeste 0 -- -- 90
2019-05-26 03:00:00 5.8 16 Noroeste 26 Noroeste 0 -- -- 93
2019-05-26 02:00:00 6.2 17 Noroeste 25 Noroeste 0 -- -- 91
2019-05-26 01:00:00 6.5 17 Noroeste 27 Noroeste 0 -- -- 91
2019-05-26 00:00:00 6.9 18 Noroeste 24 Oeste 0 -- -- 89
2019-05-25 23:00:00 7.8 17 Noroeste 26 Noroeste 0 -- -- 85
2019-05-25 22:00:00 9.3 12 Noroeste 23 Noroeste 0 -- -- 79
2019-05-25 21:00:00 11.4 11 Norte 21 Noroeste 0 -- -- 70
2019-05-25 20:00:00 12.5 11 Norte 23 Noroeste 0 -- -- 62
2019-05-25 19:00:00 12.7 15 Noroeste 30 Noroeste 0 -- -- 61
2019-05-25 18:00:00 13.3 17 Norte 33 Norte 0 -- -- 59
2019-05-25 17:00:00 12.8 17 Norte 36 Noroeste 0 -- -- 61
2019-05-25 16:00:00 12.7 22 Norte 37 Noroeste 0 -- -- 65
2019-05-25 15:00:00 11.9 18 Norte 35 Norte 0 -- -- 68
2019-05-25 14:00:00 11.1 21 Norte 31 Norte 0 -- -- 72
2019-05-25 13:00:00 8.7 19 Noroeste 37 Noroeste 0 -- -- 81
2019-05-25 12:00:00 7.4 25 Noroeste 37 Noroeste 0 -- -- 86
2019-05-25 11:00:00 6.4 24 Noroeste 43 Noroeste 0 -- -- 88
2019-05-25 10:00:00 6.2 30 Noroeste 45 Noroeste 0 -- -- 88
2019-05-25 09:00:00 5.7 20 Norte 38 Noroeste 0 -- -- 90
2019-05-25 08:00:00 5.7 25 Noroeste 38 Noroeste 0 -- -- 90
2019-05-25 07:00:00 5.5 23 Noroeste 42 Noroeste 0 -- -- 90
2019-05-25 06:00:00 5.5 27 Noroeste 44 Noroeste 0 -- -- 91
2019-05-25 05:00:00 5.5 25 Norte 44 Noroeste 0 -- -- 93
2019-05-25 04:00:00 5.8 24 Norte 41 Noroeste 0 -- -- 94
2019-05-25 03:00:00 6.3 25 Norte 37 Noroeste 0 -- -- 91
2019-05-25 02:00:00 6.4 27 Noroeste 45 Noroeste 0 -- -- 90
2019-05-25 01:00:00 6.5 22 Noroeste 37 Norte 0 -- -- 90
2019-05-25 00:00:00 6.6 23 Noroeste 36 Noroeste 0 -- -- 90
2019-05-24 23:00:00 7.1 23 Noroeste 35 Noroeste 0 -- -- 88
2019-05-24 22:00:00 7.6 20 Noroeste 34 Norte 0 -- -- 88
2019-05-24 21:00:00 8.1 17 Noroeste 31 Noroeste 0 -- -- 88
2019-05-24 20:00:00 8.5 19 Norte 30 Noroeste 0 -- -- 86
2019-05-24 19:00:00 8.8 19 Norte 32 Noroeste 0 -- -- 84
2019-05-24 18:00:00 9.1 22 Norte 39 Norte 0 -- -- 82
2019-05-24 17:00:00 8.7 16 Noroeste 33 Noroeste 0 -- -- 91
2019-05-24 16:00:00 8.1 15 Noroeste 33 Norte 0 -- -- 92
2019-05-24 15:00:00 7.3 22 Noroeste 33 Noroeste 1.4 -- -- 96
2019-05-24 14:00:00 7.9 21 Noroeste 32 Noroeste 0 -- -- 90
2019-05-24 13:00:00 8.9 23 Norte 41 Noroeste 0 -- -- 85
2019-05-24 12:00:00 7.4 21 Noroeste 41 Noroeste 0.2 -- -- 97
2019-05-24 11:00:00 7.3 15 Noroeste 23 Noroeste 0 -- -- 97
2019-05-24 10:00:00 8.1 12 Noroeste 18 Noroeste 0 -- -- 96
2019-05-24 09:00:00 8.7 10 Noroeste 17 Noroeste 0.2 -- -- 95
2019-05-24 08:00:00 9 6 Noroeste 9 Norte 0 -- -- 94
2019-05-24 07:00:00 9.6 5 Noroeste 10 Oeste 0 -- -- 90
2019-05-24 06:00:00 10.4 3 Noroeste 19 Sur 0 -- -- 85
2019-05-24 05:00:00 12.5 14 Sur 18 Sur 0 -- -- 71
2019-05-24 04:00:00 12.7 14 Sur 22 Sur 0 -- -- 73
2019-05-24 03:00:00 12.7 15 Sur 22 Sur 0 -- -- 76
2019-05-24 02:00:00 13.1 14 Sur 22 Sur 0.2 -- -- 68
2019-05-24 01:00:00 12 9 Noroeste 52 Oeste 0 -- -- 79
2019-05-24 00:00:00 16.4 3 Sur 12 Sudeste 0 -- -- 47
2019-05-23 23:00:00 16.4 4 Sudoeste 16 Oeste 0 -- -- 45
2019-05-23 22:00:00 17.1 6 Sudoeste 17 Sudoeste 0 -- -- 44
2019-05-23 21:00:00 18.3 6 Sudoeste 17 Sudoeste 0 -- -- 41
2019-05-23 20:00:00 19.9 7 Sudoeste 21 Oeste 0 -- -- 38
2019-05-23 19:00:00 19.6 14 Oeste 24 Oeste 0 -- -- 38
2019-05-23 18:00:00 19.4 14 Sudoeste 30 Oeste 0 -- -- 37
2019-05-23 17:00:00 19.6 15 Noroeste 28 Oeste 0 -- -- 40
2019-05-23 16:00:00 18.1 14 Oeste 27 Oeste 0 -- -- 43
2019-05-23 15:00:00 18.6 18 Oeste 32 Oeste 0 -- -- 41
2019-05-23 14:00:00 18.9 18 Oeste 29 Oeste 0 -- -- 38
2019-05-23 13:00:00 19.5 7 Oeste 27 Oeste 0 -- -- 38
2019-05-23 12:00:00 19 13 Sudoeste 28 Oeste 0 -- -- 38
2019-05-23 11:00:00 17.6 13 Oeste 27 Oeste 0 -- -- 46
2019-05-23 10:00:00 16.7 5 Sudoeste 18 Oeste 0 -- -- 46
2019-05-23 09:00:00 16.5 13 Sudoeste 23 Oeste 0 -- -- 45
2019-05-23 08:00:00 14.7 13 Sudoeste 23 Sudoeste 0 -- -- 49
2019-05-23 07:00:00 14.2 13 Sudoeste 21 Sudoeste 0 -- -- 53
2019-05-23 06:00:00 11.9 5 Sudoeste 15 Sur 0 -- -- 62
2019-05-23 05:00:00 11.4 0 Calma 6 Noroeste 0 -- -- 65
2019-05-23 04:00:00 11.7 2 Sudeste 27 Sudoeste 0 -- -- 66
2019-05-23 03:00:00 12.7 23 Sudoeste 33 Sudoeste 0 -- -- 67
2019-05-23 02:00:00 12.8 17 Sudoeste 31 Sudoeste 0 -- -- 71
2019-05-23 01:00:00 10.9 17 Sur 31 Sur 0 -- -- 84
2019-05-23 00:00:00 11.1 17 Sudeste 24 Sur 0 -- -- 88
2019-05-22 23:00:00 11.6 5 Sudeste 16 Sudeste 0 -- -- 80
2019-05-22 22:00:00 12.9 4 Sudeste 16 Sur 0 -- -- 75
2019-05-22 21:00:00 13.6 13 Sur 18 Sur 0 -- -- 77
2019-05-22 20:00:00 16.4 11 Sur 17 Sur 0 -- -- 61
2019-05-22 19:00:00 17.7 9 Este 19 Norte 0 -- -- 49
2019-05-22 18:00:00 18.9 8 Sudeste 14 Este 0 -- -- 45
2019-05-22 17:00:00 18.5 4 Este 18 Este 0 -- -- 43
2019-05-22 16:00:00 18 5 Nordeste 20 Nordeste 0 -- -- 47
2019-05-22 15:00:00 17.8 10 Este 19 Nordeste 0 -- -- 46
2019-05-22 14:00:00 17 9 Sudeste 20 Sudeste 0 -- -- 46
2019-05-22 13:00:00 16.6 11 Sudeste 25 Este 0 -- -- 52
2019-05-22 12:00:00 15.3 14 Sudeste 29 Sudeste 0 -- -- 59
2019-05-22 11:00:00 15 19 Este 27 Este 0 -- -- 61
2019-05-22 10:00:00 14.2 13 Este 21 Este 0 -- -- 62
2019-05-22 09:00:00 13.6 12 Sur 19 Sudeste 0 -- -- 60
2019-05-22 08:00:00 12.1 6 Sur 14 Sudoeste 0 -- -- 59
2019-05-22 07:00:00 8.9 4 Sur 11 Sur 0 -- -- 67
2019-05-22 06:00:00 8.2 2 Sur 7 Sudoeste 0 -- -- 70
2019-05-22 05:00:00 7.9 0 Calma 4 Oeste 0 -- -- 73
2019-05-22 04:00:00 7.8 0 Calma 2 Nordeste 0 -- -- 74
2019-05-22 03:00:00 7.8 0 Calma 5 Sur 0 -- -- 75
2019-05-22 02:00:00 8.4 5 Sur 14 Sur 0 -- -- 72
2019-05-22 01:00:00 8.7 8 Sur 17 Sur 0 -- -- 71
2019-05-22 00:00:00 8.8 10 Sur 18 Sur 0 -- -- 75